Detalii statie TARCEA AGRO TARCEA [0000197E]

Toti senzorii

Date Temperatura solului [C]Precipitatii [mm]Voltaj baterie [mV]Leaf Wetness [Min]HC Air temperature [C]HC Relative humidity [%]Punctul de roua [C]
medieminmaxsumaultimatimpmedieminmaxmediemediemin
2018-02-23 13:00:00 2.1 2 2.2 0 7050 2.45 2.32 2.56 100 2.4 2.3
2018-02-23 14:00:00 2.2 2.1 2.3 0 7314 2.71 2.55 2.92 100 2.6 2.5
2018-02-23 15:00:00 2.4 2.2 2.6 0 7314 2.93 2.71 3.12 100 2.8 2.7
2018-02-23 16:00:00 2.6 2.5 2.7 0 7314 2.96 2.64 3.16 100 2.9 2.6
2018-02-23 17:00:00 2.7 2.6 2.9 0 7040 2.42 1.94 2.84 100 2.3 1.9
2018-02-23 18:00:00 2.7 2.7 2.8 0 6982 1.55 1.16 1.84 100 1.5 1.1
2018-02-23 19:00:00 2.7 2.6 2.8 0 6922 0.9 0.73 1.22 100 0.8 0.7
2018-02-23 20:00:00 2.6 2.5 2.7 0 6864 0.12 -0.3 0.61 100 0.1 -0.2
2018-02-23 21:00:00 2.4 2.4 2.6 0 6854 -0.72 -0.95 -0.35 100 -0.5 -0.8
2018-02-23 22:00:00 2.2 2.2 2.4 0 6844 -1.31 -1.7 -0.86 100 -1.1 -1.6
2018-02-23 23:00:00 2.1 1.9 2.3 0 6834 -1.58 -1.71 -1.47 98.34 -1.6 -2.2
2018-02-24 00:00:00 1.9 1.8 2.1 0 6826 -1.47 -1.55 -1.44 88.47 -3 -3.6
2018-02-24 01:00:00 1.8 1.8 2 0 6806 -1.59 -1.7 -1.49 83.66 -3.9 -4.4
2018-02-24 02:00:00 1.7 1.6 1.8 0 6806 -1.91 -2.17 -1.69 82.19 -4.4 -5.1
2018-02-24 03:00:00 1.6 1.4 1.7 0 6796 -2.41 -2.65 -2.22 78.32 -5.5 -6.1
2018-02-24 04:00:00 1.5 1.4 1.6 0 6776 -3.07 -3.5 -2.69 77.13 -6.4 -6.8
2018-02-24 05:00:00 1.3 1.3 1.5 0 6776 -3.88 -4.14 -3.55 78.55 -7 -7.2
2018-02-24 06:00:00 1.3 1.2 1.5 0 6766 -4.36 -4.57 -4.21 78.76 -7.3 -7.5
2018-02-24 07:00:00 1.2 1.1 1.3 0 6766 -4.75 -4.85 -4.64 79.28 -7.7 -7.9
2018-02-24 08:00:00 1.2 1.1 1.3 0 6766 -4.83 -4.93 -4.63 76.93 -8.2 -8.5
2018-02-24 09:00:00 1 1 1.2 0 6982 -4.14 -4.6 -3.61 70.9 -8.5 -8.8
2018-02-24 10:00:00 1 0.9 1.1 0.2 7324 -3.17 -3.54 -2.87 62.43 -9.2 -9.9
2018-02-24 11:00:00 0.9 0.9 1.1 0 7342 -2.48 -2.83 -2.15 58.77 -9.3 -9.7
2018-02-24 12:00:00 0.9 0.9 1 0 7324 -1.74 -2.25 -1.25 59.59 -8.5 -9.4
2018-02-24 13:00:00 0.9 0.8 1 0 7332 -1.14 -1.53 -0.68 56.88 -8.5 -8.9
2018-02-24 14:00:00 0.8 0.8 0.9 0 7324 -0.44 -0.76 0 53.32 -8.7 -9.2
2018-02-24 15:00:00 0.8 0.8 0.9 0 7332 -0.08 -0.39 0.23 50.13 -9.2 -9.9
2018-02-24 16:00:00 0.8 0.8 0.9 0 7332 0.09 -0.17 0.35 47.09 -9.8 -10.5
2018-02-24 17:00:00 0.9 0.8 1 0 7324 -0.33 -0.92 0.22 50.72 -9.3 -10.4
2018-02-24 18:00:00 0.8 0.6 0.9 0 7020 -1.31 -1.71 -0.97 54.33 -9.2 -9.9
2018-02-24 19:00:00 0.9 0.9 1 0 6972 -2.15 -2.62 -1.8 53.61 -10.2 -11
2018-02-24 20:00:00 0.8 0.8 0.9 0 6904 -3.1 -3.45 -2.72 54.09 -11 -11.3
2018-02-24 21:00:00 0.8 0.8 0.9 0 6894 -3.79 -4.11 -3.49 54.67 -11.5 -12.1
2018-02-24 22:00:00 0.7 0.7 0.8 0 6854 -4.48 -4.78 -4.19 54.96 -12 -12.5
2018-02-24 23:00:00 0.6 0.4 0.8 0 6844 -5.08 -5.39 -4.82 55.19 -12.6 -12.9
2018-02-25 00:00:00 0.7 0.6 0.8 0 6834 -5.6 -5.85 -5.43 56.17 -12.8 -13.4
2018-02-25 01:00:00 0.6 0.6 0.8 0 6826 -6.07 -6.4 -5.85 56.64 -13.2 -13.5
2018-02-25 02:00:00 0.5 0.5 0.7 0 6806 -6.7 -7.15 -6.31 61.6 -12.8 -14.3
2018-02-25 03:00:00 0.5 0.5 0.7 0 6796 -7.32 -7.51 -7.19 65.32 -12.6 -13.2
2018-02-25 04:00:00 0.4 0.4 0.5 0 6796 -7.72 -7.93 -7.5 63.44 -13.3 -13.6
2018-02-25 05:00:00 0.4 0.2 0.6 0 6776 -8.03 -8.08 -7.96 62.21 -13.9 -14.5
2018-02-25 06:00:00 0.4 0.3 0.5 0 6766 -8.08 -8.2 -7.96 57.07 -15 -15.3
2018-02-25 07:00:00 0.3 0.3 0.4 0 6776 -8.35 -8.47 -8.2 57.89 -15.1 -15.3
2018-02-25 08:00:00 0.2 0 0.5 0 6748 -8.56 -8.64 -8.5 59.05 -15 -15.2
2018-02-25 09:00:00 0.2 0 0.3 0 6932 -8.17 -8.43 -7.84 56.54 -15.2 -15.7
2018-02-25 10:00:00 0.1 0 0.3 0 7314 -7.25 -7.84 -6.79 51.31 -15.5 -15.9
2018-02-25 11:00:00 0.1 0.1 0.2 0 7342 -6.24 -6.67 -5.59 47.57 -15.5 -16.2